Historique des mesures à Cassis (13260), France
Quotidien Résumé Mai 19, 2017 Unités:  Métrique    US   Métrique/US
« Précédent (Jour)
Suivant (Jour) »
Quotidien Hebdomadaire Mensuel Annuel Période au choix
  Maximum: Minimum: Moyenne:
Température: TemperatureC °C 13.3 °C 16.6 °C
Point de rosée: DewpointC °C 7.5 °C 9.5 °C
Humidité: Humidity % 46 % 61 %
Vitesse du vent: 0 km/h 3.4 km/h 21.2 km/h
Rafales: 0 km/h - -
Vent:- - SSW
Pression: PressurehPa hPa 1010.0 hPa -
Précipitations: 1.5 mm    
Historical Graphs
 
 
Mesures pour : Mai 19, 2017
Heure Temperature Point de rosée Pression Vent Vitesse du vent Rafales Humidité Pluie (par heure) Conditions
TemperatureC °C DewpointC °C PressurehPa hPa Calm     Humidity % HourlyPrecipMM mm SoftwareType W/m2
00:10 20.3 °C 13.2 °C 1010.4 hPa SSW 3.4 km/h 5.6 km/h 64 % 0.0 mm open2300-1.11 W/m2
01:10 18.4 °C 13.3 °C 1010.4 hPa NNW 19.6 km/h 33.2 km/h 72 % 0.0 mm open2300-1.11 W/m2
02:10 17.4 °C 12.5 °C 1010.4 hPa NW 20.9 km/h 29.5 km/h 73 % 0.0 mm open2300-1.11 W/m2
03:10 16.1 °C 12.5 °C 1010.0 hPa WNW 26.7 km/h 27.2 km/h 79 % 0.5 mm open2300-1.11 W/m2
04:10 15.3 °C 11.9 °C 1010.0 hPa WNW 36.5 km/h 61.3 km/h 80 % 0.5 mm open2300-1.11 W/m2
05:10 14.4 °C 11.0 °C 1010.0 hPa NW 35.2 km/h 35.2 km/h 80 % 0.5 mm open2300-1.11 W/m2
06:10 14.2 °C 11.0 °C 1010.0 hPa WNW 14.5 km/h 16.3 km/h 81 % 0.0 mm open2300-1.11 W/m2
07:10 14.3 °C 10.7 °C 1011.1 hPa NW 23 km/h 27.2 km/h 79 % 0.0 mm open2300-1.11 W/m2
08:10 13.4 °C 8.6 °C 1011.7 hPa NNE 11.6 km/h 14.5 km/h 73 % 0.0 mm open2300-1.11 W/m2
09:10 13.3 °C 8.9 °C 1011.7 hPa NNE 13.2 km/h 36 km/h 75 % 0.0 mm open2300-1.11 W/m2
10:10 14.7 °C 9.7 °C 1012.1 hPa NW 17.9 km/h 17.9 km/h 72 % 0.0 mm open2300-1.11 W/m2
11:10 16.9 °C 9.6 °C 1011.7 hPa NNE 31.4 km/h 33.6 km/h 62 % 0.0 mm open2300-1.11 W/m2
12:10 18.3 °C 8.5 °C 1012.8 hPa NNE 17.9 km/h 35.2 km/h 53 % 0.0 mm open2300-1.11 W/m2
13:10 18.8 °C 7.6 °C 1012.4 hPa NW 16.3 km/h 19.6 km/h 48 % 0.0 mm open2300-1.11 W/m2
14:10 19.5 °C 7.5 °C 1012.4 hPa NNE 10.9 km/h 36 km/h 46 % 0.0 mm open2300-1.11 W/m2
15:10 19.9 °C 7.9 °C 1012.4 hPa WNW 34.8 km/h 51.5 km/h 46 % 0.0 mm open2300-1.11 W/m2
16:10 20.1 °C 9.4 °C 1012.8 hPa WNW 22.5 km/h 22.5 km/h 50 % 0.0 mm open2300-1.11 W/m2
17:10 20.0 °C 9.0 °C 1012.8 hPa North 29.5 km/h 39.4 km/h 49 % 0.0 mm open2300-1.11 W/m2
18:11 20.1 °C 8.7 °C 1012.8 hPa North 22 km/h 31.9 km/h 48 % 0.0 mm open2300-1.11 W/m2
19:10 18.9 °C 8.8 °C 1013.1 hPa NW 19.6 km/h 30.7 km/h 52 % 0.0 mm open2300-1.11 W/m2
20:10 18.3 °C 9.1 °C 1013.8 hPa NW 20.9 km/h 31.4 km/h 55 % 0.0 mm open2300-1.11 W/m2
21:10 17.6 °C 9.2 °C 1013.8 hPa NNW 30.1 km/h 30.1 km/h 58 % 0.0 mm open2300-1.11 W/m2
22:10 17.2 °C 9.8 °C 1014.1 hPa NW 45.4 km/h 45.4 km/h 62 % 0.0 mm open2300-1.11 W/m2
23:10 17.1 °C 8.2 °C 1014.8 hPa North 6.4 km/h 33.6 km/h 56 % 0.0 mm open2300-1.11 W/m2
Observations météo à CASSIS
WU-History script by Weather Underground - 1 mb